createdAt,value
2017-05-31T00:00:54.738Z,0
2017-05-31T00:02:04.080Z,0
2017-05-31T00:03:13.086Z,0
2017-05-31T00:04:22.046Z,0
2017-05-31T00:05:31.205Z,0
2017-05-31T00:06:40.176Z,0
2017-05-31T00:07:49.442Z,0
2017-05-31T00:08:58.513Z,0
2017-05-31T00:10:07.474Z,0
2017-05-31T00:11:16.434Z,0
2017-05-31T00:12:25.440Z,0
2017-05-31T00:13:35.051Z,0
2017-05-31T00:14:44.250Z,0
2017-05-31T00:15:53.219Z,0
2017-05-31T00:17:02.182Z,0
2017-05-31T00:18:11.140Z,0
2017-05-31T00:19:20.401Z,0
2017-05-31T00:20:29.701Z,0
2017-05-31T00:21:38.661Z,0
2017-05-31T00:22:47.709Z,0
2017-05-31T00:23:56.741Z,0
2017-05-31T00:25:05.952Z,0
2017-05-31T00:26:14.997Z,0
2017-05-31T00:27:23.965Z,0
2017-05-31T00:28:33.261Z,0
2017-05-31T00:29:42.304Z,0
2017-05-31T00:30:51.519Z,0
2017-05-31T00:32:00.481Z,0
2017-05-31T00:33:09.442Z,0
2017-05-31T00:34:18.399Z,0
2017-05-31T00:35:27.410Z,0
2017-05-31T00:36:36.621Z,0
2017-05-31T00:37:45.586Z,0
2017-05-31T00:38:54.554Z,0
2017-05-31T00:40:03.600Z,0
2017-05-31T00:41:12.559Z,0
2017-05-31T00:42:21.779Z,0
2017-05-31T00:43:30.741Z,0
2017-05-31T00:44:39.702Z,0
2017-05-31T00:45:48.658Z,0
2017-05-31T00:46:57.619Z,0
2017-05-31T00:48:06.884Z,0
2017-05-31T00:49:15.840Z,0
2017-05-31T00:50:24.809Z,0
2017-05-31T00:51:33.865Z,0
2017-05-31T00:52:43.152Z,0
2017-05-31T00:53:52.361Z,0
2017-05-31T00:55:01.331Z,0
2017-05-31T00:56:10.288Z,0
2017-05-31T00:57:19.251Z,0
2017-05-31T00:58:28.213Z,0
2017-05-31T00:59:37.428Z,0
2017-05-31T01:00:46.389Z,0
2017-05-31T01:01:55.352Z,0
2017-05-31T01:03:04.379Z,0
2017-05-31T01:04:13.342Z,0
2017-05-31T01:05:22.552Z,0
2017-05-31T01:06:31.519Z,0
2017-05-31T01:07:40.481Z,0
2017-05-31T01:08:49.441Z,0
2017-05-31T01:09:58.399Z,0
2017-05-31T01:11:07.619Z,0
2017-05-31T01:12:16.586Z,0
2017-05-31T01:13:25.543Z,0
2017-05-31T01:14:34.541Z,0
2017-05-31T01:15:43.501Z,0
2017-05-31T01:16:52.762Z,0
2017-05-31T01:18:01.733Z,0
2017-05-31T01:19:10.695Z,0
2017-05-31T01:20:19.655Z,0
2017-05-31T01:21:28.613Z,0
2017-05-31T01:22:37.880Z,0
2017-05-31T01:23:46.838Z,0
2017-05-31T01:24:55.802Z,0
2017-05-31T01:26:04.767Z,0
2017-05-31T01:27:13.817Z,0
2017-05-31T01:28:23.026Z,0
2017-05-31T01:29:32.082Z,0
2017-05-31T01:30:41.053Z,0
2017-05-31T01:31:50.012Z,0
2017-05-31T01:32:58.967Z,0
2017-05-31T01:34:08.200Z,0
2017-05-31T01:35:17.162Z,0
2017-05-31T01:36:26.129Z,0
2017-05-31T01:37:35.095Z,0
2017-05-31T01:38:44.052Z,0
2017-05-31T01:39:53.262Z,0
2017-05-31T01:41:02.227Z,0
2017-05-31T01:42:11.185Z,0
2017-05-31T01:43:20.143Z,0
2017-05-31T01:44:29.111Z,0
2017-05-31T01:45:38.320Z,0
2017-05-31T01:46:47.604Z,0
2017-05-31T01:47:56.564Z,0
2017-05-31T01:49:05.527Z,0
2017-05-31T01:50:14.816Z,0
2017-05-31T01:51:24.115Z,0
2017-05-31T01:52:33.080Z,0
2017-05-31T01:53:42.040Z,0
2017-05-31T01:54:50.997Z,0
2017-05-31T01:55:59.958Z,0
2017-05-31T01:57:09.173Z,0
2017-05-31T01:58:18.135Z,0
2017-05-31T01:59:27.110Z,0
2017-05-31T02:00:36.393Z,0
2017-05-31T02:01:45.443Z,0
2017-05-31T02:02:54.659Z,0
2017-05-31T02:04:03.623Z,0
2017-05-31T02:05:12.586Z,0
2017-05-31T02:06:21.546Z,0
2017-05-31T02:07:30.520Z,0
2017-05-31T02:08:39.729Z,0
2017-05-31T02:09:48.690Z,0
2017-05-31T02:10:57.651Z,0
2017-05-31T02:12:06.608Z,0
2017-05-31T02:13:15.574Z,0
2017-05-31T02:14:24.794Z,0
2017-05-31T02:15:34.090Z,0
2017-05-31T02:16:43.050Z,0
2017-05-31T02:17:52.011Z,0
2017-05-31T02:19:00.977Z,0
2017-05-31T02:20:10.279Z,0
2017-05-31T02:21:19.243Z,0
2017-05-31T02:22:28.206Z,0
2017-05-31T02:23:37.168Z,0
2017-05-31T02:24:46.134Z,0
2017-05-31T02:25:55.362Z,0
2017-05-31T02:27:04.337Z,0
2017-05-31T02:28:13.293Z,0
2017-05-31T02:29:22.256Z,0
2017-05-31T02:30:31.878Z,0
2017-05-31T02:31:41.094Z,0
2017-05-31T02:32:50.056Z,0
2017-05-31T02:33:59.015Z,0
2017-05-31T02:35:07.978Z,0
2017-05-31T02:36:16.943Z,0
2017-05-31T02:37:26.251Z,0
2017-05-31T02:38:35.211Z,0
2017-05-31T02:39:44.171Z,0
2017-05-31T02:40:53.225Z,0
2017-05-31T02:42:02.183Z,0
2017-05-31T02:43:11.390Z,0
2017-05-31T02:44:20.354Z,0
2017-05-31T02:45:29.323Z,0
2017-05-31T02:46:38.291Z,0
2017-05-31T02:47:47.345Z,0
2017-05-31T02:48:56.558Z,0
2017-05-31T02:50:05.612Z,0
2017-05-31T02:51:14.574Z,0
2017-05-31T02:52:23.624Z,0
2017-05-31T02:53:32.588Z,0
2017-05-31T02:54:41.863Z,0
2017-05-31T02:55:50.826Z,0
2017-05-31T02:56:59.786Z,0
2017-05-31T02:58:08.742Z,0
2017-05-31T02:59:17.704Z,0
2017-05-31T03:00:26.918Z,0
2017-05-31T03:01:36.211Z,0
2017-05-31T03:02:45.181Z,0
2017-05-31T03:03:54.145Z,0
2017-05-31T03:05:03.098Z,0
2017-05-31T03:06:12.316Z,0
2017-05-31T03:07:21.287Z,0
2017-05-31T03:08:30.249Z,0
2017-05-31T03:09:39.217Z,0
2017-05-31T03:10:48.175Z,0
2017-05-31T03:11:57.443Z,0
2017-05-31T03:13:06.402Z,0
2017-05-31T03:14:15.358Z,0
2017-05-31T03:15:24.321Z,0
2017-05-31T03:16:33.288Z,0
2017-05-31T03:17:42.548Z,0
2017-05-31T03:18:51.508Z,0
2017-05-31T03:20:00.792Z,0
2017-05-31T03:21:09.762Z,0
2017-05-31T03:22:18.723Z,0
2017-05-31T03:23:27.934Z,0
2017-05-31T03:24:36.898Z,0
2017-05-31T03:25:45.875Z,0
2017-05-31T03:26:54.845Z,0
2017-05-31T03:28:03.799Z,0
2017-05-31T03:29:13.057Z,5
2017-05-31T03:30:22.020Z,5
2017-05-31T03:31:30.983Z,5
2017-05-31T03:32:40.270Z,0
2017-05-31T03:33:49.232Z,0
2017-05-31T03:34:58.447Z,0
2017-05-31T03:36:07.410Z,0
2017-05-31T03:37:16.368Z,0
2017-05-31T03:38:25.334Z,0
2017-05-31T03:39:34.299Z,5
2017-05-31T03:40:43.834Z,5
2017-05-31T03:41:52.795Z,5
2017-05-31T03:43:01.758Z,0
2017-05-31T03:44:10.717Z,0
2017-05-31T03:45:19.676Z,0
2017-05-31T03:46:28.982Z,5
2017-05-31T03:47:37.945Z,5
2017-05-31T03:48:46.905Z,5
2017-05-31T03:49:55.865Z,5
2017-05-31T03:51:04.831Z,5
2017-05-31T03:52:14.045Z,5
2017-05-31T03:53:23.004Z,5
2017-05-31T03:54:31.966Z,0
2017-05-31T03:55:40.927Z,5
2017-05-31T03:56:49.978Z,5
2017-05-31T03:57:59.243Z,5
2017-05-31T03:59:08.209Z,5
2017-05-31T04:00:17.170Z,5
2017-05-31T04:01:26.128Z,5
2017-05-31T04:02:35.103Z,5
2017-05-31T04:03:44.314Z,5
2017-05-31T04:04:53.367Z,5
2017-05-31T04:06:02.336Z,5
2017-05-31T04:07:11.302Z,5
2017-05-31T04:08:20.587Z,5
2017-05-31T04:09:29.799Z,5
2017-05-31T04:10:38.758Z,5
2017-05-31T04:11:47.716Z,5
2017-05-31T04:12:56.673Z,5
2017-05-31T04:14:05.637Z,5
2017-05-31T04:15:14.898Z,5
2017-05-31T04:16:23.855Z,5
2017-05-31T04:17:32.860Z,5
2017-05-31T04:18:41.825Z,5
2017-05-31T04:19:50.784Z,10
2017-05-31T04:20:59.994Z,5
2017-05-31T04:22:08.957Z,5
2017-05-31T04:23:17.922Z,5
2017-05-31T04:24:26.878Z,5
2017-05-31T04:25:36.170Z,5
2017-05-31T04:26:45.392Z,5
2017-05-31T04:27:54.351Z,5
2017-05-31T04:29:03.308Z,5
2017-05-31T04:30:12.268Z,10
2017-05-31T04:31:21.320Z,10
2017-05-31T04:32:30.580Z,10
2017-05-31T04:33:39.540Z,5
2017-05-31T04:34:48.499Z,10
2017-05-31T04:35:57.463Z,15
2017-05-31T04:37:06.423Z,15
2017-05-31T04:38:15.633Z,20
2017-05-31T04:39:24.593Z,15
2017-05-31T04:40:33.891Z,20
2017-05-31T04:41:42.851Z,25
2017-05-31T04:42:51.811Z,35
2017-05-31T04:44:01.024Z,30
2017-05-31T04:45:09.989Z,30
2017-05-31T04:46:19.273Z,30
2017-05-31T04:47:28.236Z,30
2017-05-31T04:48:37.247Z,35
2017-05-31T04:49:46.459Z,30
2017-05-31T04:50:55.427Z,30
2017-05-31T04:52:04.711Z,30
2017-05-31T04:53:13.665Z,20
2017-05-31T04:54:22.623Z,20
2017-05-31T04:55:31.888Z,20
2017-05-31T04:56:40.846Z,30
2017-05-31T04:57:49.804Z,35
2017-05-31T04:58:58.765Z,50
2017-05-31T05:00:07.726Z,50
2017-05-31T05:01:16.934Z,25
2017-05-31T05:02:25.898Z,20
2017-05-31T05:03:34.860Z,20
2017-05-31T05:04:43.822Z,20
2017-05-31T05:05:52.785Z,20
2017-05-31T05:07:01.996Z,20
2017-05-31T05:08:10.960Z,20
2017-05-31T05:09:19.920Z,15
2017-05-31T05:10:28.897Z,15
2017-05-31T05:11:37.855Z,20
2017-05-31T05:12:47.064Z,20
2017-05-31T05:13:56.035Z,20
2017-05-31T05:15:04.995Z,30
2017-05-31T05:16:13.953Z,45
2017-05-31T05:17:22.915Z,40
2017-05-31T05:18:32.216Z,40
2017-05-31T05:19:41.179Z,30
2017-05-31T05:20:50.143Z,25
2017-05-31T05:21:59.104Z,35
2017-05-31T05:23:08.071Z,35
2017-05-31T05:24:17.282Z,45
2017-05-31T05:25:26.241Z,45
2017-05-31T05:26:35.203Z,45
2017-05-31T05:27:44.576Z,40
2017-05-31T05:28:53.536Z,40
2017-05-31T05:30:02.795Z,45
2017-05-31T05:31:11.762Z,55
2017-05-31T05:32:21.051Z,45
2017-05-31T05:33:30.066Z,40
2017-05-31T05:34:39.024Z,50
2017-05-31T05:35:48.237Z,50
2017-05-31T05:36:57.211Z,50
2017-05-31T05:38:06.168Z,55
2017-05-31T05:39:15.216Z,50
2017-05-31T05:40:24.176Z,45
2017-05-31T05:41:33.387Z,35
2017-05-31T05:42:42.351Z,35
2017-05-31T05:43:51.319Z,40
2017-05-31T05:45:00.278Z,40
2017-05-31T05:46:09.238Z,45
2017-05-31T05:47:18.520Z,50
2017-05-31T05:48:27.484Z,65
2017-05-31T05:49:36.444Z,75
2017-05-31T05:50:45.409Z,80
2017-05-31T05:51:54.366Z,75
2017-05-31T05:53:03.630Z,50
2017-05-31T05:54:13.070Z,45
2017-05-31T05:55:22.171Z,25
2017-05-31T05:56:31.212Z,45
2017-05-31T05:57:40.176Z,55
2017-05-31T05:58:49.415Z,70
2017-05-31T05:59:58.379Z,35
2017-05-31T06:01:07.342Z,55
2017-05-31T06:02:16.326Z,65
2017-05-31T06:03:25.297Z,125
2017-05-31T06:04:34.556Z,145
2017-05-31T06:05:43.526Z,75
2017-05-31T06:06:52.665Z,80
2017-05-31T06:08:01.668Z,75
2017-05-31T06:09:10.790Z,75
2017-05-31T06:10:20.077Z,65
2017-05-31T06:11:29.122Z,65
2017-05-31T06:12:38.433Z,70
2017-05-31T06:13:47.563Z,70
2017-05-31T06:14:56.650Z,60
2017-05-31T06:16:06.082Z,45
2017-05-31T06:17:15.508Z,55
2017-05-31T06:18:24.645Z,40
2017-05-31T06:19:33.946Z,40
2017-05-31T06:20:43.175Z,50
2017-05-31T06:21:52.551Z,75
2017-05-31T06:23:01.601Z,45
2017-05-31T06:24:11.094Z,50
2017-05-31T06:25:20.226Z,50
2017-05-31T06:26:29.717Z,45
2017-05-31T06:27:39.052Z,75
2017-05-31T06:28:48.081Z,95
2017-05-31T06:29:57.093Z,60
2017-05-31T06:31:06.102Z,55
2017-05-31T06:32:15.070Z,70
2017-05-31T06:33:24.283Z,55
2017-05-31T06:34:33.245Z,65
2017-05-31T06:35:42.319Z,80
2017-05-31T06:36:51.351Z,80
2017-05-31T06:38:00.313Z,80
2017-05-31T06:39:09.523Z,60
2017-05-31T06:40:18.513Z,50
2017-05-31T06:41:27.494Z,80
2017-05-31T06:42:36.451Z,80
2017-05-31T06:43:45.425Z,70
2017-05-31T06:44:54.689Z,60
2017-05-31T06:46:03.680Z,65
2017-05-31T06:47:12.755Z,65
2017-05-31T06:48:21.781Z,75
2017-05-31T06:49:30.871Z,80
2017-05-31T06:50:40.223Z,60
2017-05-31T06:51:49.349Z,75
2017-05-31T06:52:58.327Z,70
2017-05-31T06:54:07.289Z,70
2017-05-31T06:55:16.250Z,80
2017-05-31T06:56:25.518Z,85
2017-05-31T06:57:34.479Z,70
2017-05-31T06:58:43.444Z,60
2017-05-31T06:59:52.402Z,95
2017-05-31T07:01:01.557Z,70
2017-05-31T07:02:10.910Z,90
2017-05-31T07:03:19.966Z,85
2017-05-31T07:04:28.939Z,85
2017-05-31T07:05:37.898Z,75
2017-05-31T07:06:47.185Z,65
2017-05-31T07:07:56.399Z,50
2017-05-31T07:09:05.383Z,45
2017-05-31T07:10:14.351Z,25
2017-05-31T07:11:23.316Z,25
2017-05-31T07:12:32.283Z,50
2017-05-31T07:13:41.892Z,50
2017-05-31T07:14:50.859Z,65
2017-05-31T07:15:59.818Z,55
2017-05-31T07:17:08.789Z,40
2017-05-31T07:18:18.349Z,50
2017-05-31T07:19:27.624Z,55
2017-05-31T07:20:36.606Z,50
2017-05-31T07:21:45.674Z,65
2017-05-31T07:23:00.425Z,35
2017-05-31T07:24:22.208Z,40
2017-05-31T07:25:34.468Z,40
2017-05-31T07:26:54.616Z,45
2017-05-31T07:28:14.767Z,50
2017-05-31T07:29:25.283Z,50
2017-05-31T07:30:37.893Z,70
2017-05-31T07:31:49.081Z,75
2017-05-31T07:32:59.154Z,85
2017-05-31T07:34:12.191Z,90
2017-05-31T07:35:24.734Z,80
2017-05-31T07:36:34.135Z,60
2017-05-31T07:37:43.181Z,100
2017-05-31T07:38:52.317Z,125
2017-05-31T07:40:01.330Z,90
2017-05-31T07:41:10.610Z,90
2017-05-31T07:42:19.621Z,90
2017-05-31T07:43:28.703Z,90
2017-05-31T07:44:37.769Z,135
2017-05-31T07:45:46.791Z,50
2017-05-31T07:46:55.999Z,65
2017-05-31T07:48:04.967Z,95
2017-05-31T07:49:14.200Z,100
2017-05-31T07:50:23.299Z,115
2017-05-31T07:51:32.407Z,100
2017-05-31T07:52:41.832Z,115
2017-05-31T07:53:50.953Z,90
2017-05-31T07:55:00.029Z,85
2017-05-31T07:56:09.002Z,120
2017-05-31T07:57:18.049Z,80
2017-05-31T07:58:27.543Z,45
2017-05-31T07:59:36.667Z,75
2017-05-31T08:00:45.703Z,95
2017-05-31T08:01:54.664Z,100
2017-05-31T08:03:03.632Z,70
2017-05-31T08:04:12.843Z,115
2017-05-31T08:05:21.897Z,90
2017-05-31T08:06:30.877Z,100
2017-05-31T08:07:39.923Z,110
2017-05-31T08:08:48.905Z,100
2017-05-31T08:09:58.207Z,100
2017-05-31T08:11:07.181Z,110
2017-05-31T08:12:16.148Z,110
2017-05-31T08:13:25.112Z,100
2017-05-31T08:14:34.286Z,125
2017-05-31T08:15:43.529Z,55
2017-05-31T08:16:52.569Z,55
2017-05-31T08:18:01.541Z,75
2017-05-31T08:19:10.513Z,75
2017-05-31T08:20:19.471Z,70
2017-05-31T08:21:28.937Z,130
2017-05-31T08:22:37.901Z,75
2017-05-31T08:23:47.309Z,50
2017-05-31T08:24:56.296Z,55
2017-05-31T08:26:05.270Z,120
2017-05-31T08:27:14.481Z,95
2017-05-31T08:28:23.441Z,105
2017-05-31T08:29:32.402Z,80
2017-05-31T08:30:41.362Z,80
2017-05-31T08:31:50.326Z,80
2017-05-31T08:32:59.602Z,75
2017-05-31T08:34:08.885Z,110
2017-05-31T08:35:17.845Z,60
2017-05-31T08:36:26.817Z,60
2017-05-31T08:37:36.112Z,75
2017-05-31T08:38:45.344Z,60
2017-05-31T08:39:54.303Z,140
2017-05-31T08:41:03.263Z,80
2017-05-31T08:42:12.566Z,105
2017-05-31T08:43:21.650Z,75
2017-05-31T08:44:30.934Z,100
2017-05-31T08:45:39.975Z,105
2017-05-31T08:46:49.373Z,85
2017-05-31T08:47:58.464Z,35
2017-05-31T08:49:07.472Z,30
2017-05-31T08:50:16.684Z,55
2017-05-31T08:51:25.643Z,125
2017-05-31T08:52:34.614Z,60
2017-05-31T08:53:43.581Z,75
2017-05-31T08:54:52.543Z,90
2017-05-31T08:56:01.754Z,50
2017-05-31T08:57:10.785Z,35
2017-05-31T08:58:19.770Z,25
2017-05-31T08:59:28.733Z,25
2017-05-31T09:00:37.702Z,40
2017-05-31T09:01:46.916Z,90
2017-05-31T09:02:55.882Z,105
2017-05-31T09:04:05.051Z,115
2017-05-31T09:05:14.014Z,140
2017-05-31T09:06:22.994Z,90
2017-05-31T09:07:32.204Z,115
2017-05-31T09:08:41.186Z,95
2017-05-31T09:09:50.151Z,55
2017-05-31T09:10:59.112Z,85
2017-05-31T09:12:08.078Z,90
2017-05-31T09:13:17.349Z,95
2017-05-31T09:14:26.329Z,105
2017-05-31T09:15:35.322Z,125
2017-05-31T09:16:44.309Z,160
2017-05-31T09:17:53.297Z,130
2017-05-31T09:19:02.584Z,85
2017-05-31T09:20:11.566Z,140
2017-05-31T09:21:20.656Z,85
2017-05-31T09:22:29.774Z,130
2017-05-31T09:23:38.759Z,125
2017-05-31T09:24:48.047Z,115
2017-05-31T09:25:57.118Z,105
2017-05-31T09:27:06.104Z,70
2017-05-31T09:28:15.092Z,60
2017-05-31T09:29:24.079Z,75
2017-05-31T09:30:33.325Z,115
2017-05-31T09:31:42.310Z,45
2017-05-31T09:32:51.299Z,40
2017-05-31T09:34:00.289Z,70
2017-05-31T09:35:09.338Z,120
2017-05-31T09:36:18.555Z,115
2017-05-31T09:37:27.520Z,90
2017-05-31T09:38:36.488Z,40
2017-05-31T09:39:45.522Z,65
2017-05-31T09:40:54.828Z,50
2017-05-31T09:42:04.155Z,45
2017-05-31T09:43:13.145Z,45
2017-05-31T09:44:22.136Z,45
2017-05-31T09:45:31.212Z,75
2017-05-31T09:46:40.199Z,105
2017-05-31T09:47:49.443Z,90
2017-05-31T09:48:58.432Z,60
2017-05-31T09:50:07.420Z,50
2017-05-31T09:51:16.411Z,45
2017-05-31T09:52:25.401Z,55
2017-05-31T09:53:34.639Z,50
2017-05-31T09:54:43.627Z,50
2017-05-31T09:55:52.675Z,55
2017-05-31T09:57:01.662Z,60
2017-05-31T09:58:10.990Z,115
2017-05-31T09:59:20.272Z,95
2017-05-31T10:00:29.366Z,85
2017-05-31T10:01:38.356Z,80
2017-05-31T10:02:47.340Z,80
2017-05-31T10:03:56.324Z,80
2017-05-31T10:05:05.651Z,80
2017-05-31T10:06:14.622Z,30
2017-05-31T10:07:23.588Z,35
2017-05-31T10:08:32.548Z,85
2017-05-31T10:09:41.513Z,95
2017-05-31T10:10:50.724Z,115
2017-05-31T10:11:59.693Z,120
2017-05-31T10:13:09.361Z,110
2017-05-31T10:14:18.800Z,75
2017-05-31T10:15:27.762Z,95
2017-05-31T10:16:37.024Z,70
2017-05-31T10:17:45.989Z,55
2017-05-31T10:18:54.958Z,45
2017-05-31T10:20:03.919Z,90
2017-05-31T10:21:12.887Z,105
2017-05-31T10:22:22.100Z,120
2017-05-31T10:23:31.085Z,130
2017-05-31T10:24:42.466Z,105
2017-05-31T10:25:51.499Z,115
2017-05-31T10:27:00.598Z,115
2017-05-31T10:28:09.820Z,100
2017-05-31T10:29:18.790Z,90
2017-05-31T10:30:27.756Z,70
2017-05-31T10:31:36.714Z,65
2017-05-31T10:32:45.694Z,50
2017-05-31T10:33:54.911Z,50
2017-05-31T10:35:03.873Z,45
2017-05-31T10:36:12.839Z,85
2017-05-31T10:37:21.808Z,45
2017-05-31T10:38:30.774Z,120
2017-05-31T10:39:40.081Z,115
2017-05-31T10:40:49.047Z,65
2017-05-31T10:41:58.007Z,70
2017-05-31T10:43:06.963Z,95
2017-05-31T10:44:15.931Z,95
2017-05-31T10:45:25.152Z,65
2017-05-31T10:46:34.124Z,90
2017-05-31T10:47:43.089Z,110
2017-05-31T10:48:52.049Z,60
2017-05-31T10:50:01.008Z,85
2017-05-31T10:51:10.222Z,100
2017-05-31T10:52:19.194Z,75
2017-05-31T10:53:28.158Z,50
2017-05-31T10:54:37.129Z,45
2017-05-31T10:55:46.098Z,40
2017-05-31T10:56:55.365Z,35
2017-05-31T10:58:04.659Z,40
2017-05-31T10:59:13.617Z,90
2017-05-31T11:00:22.591Z,85
2017-05-31T11:01:31.577Z,60
2017-05-31T11:02:40.799Z,45
2017-05-31T11:03:49.763Z,40
2017-05-31T11:04:58.742Z,40
2017-05-31T11:06:07.705Z,25
2017-05-31T11:07:16.668Z,25
2017-05-31T11:08:25.888Z,35
2017-05-31T11:09:34.856Z,55
2017-05-31T11:10:43.853Z,95
2017-05-31T11:11:52.817Z,95
2017-05-31T11:13:01.811Z,80
2017-05-31T11:14:11.081Z,75
2017-05-31T11:15:20.051Z,85
2017-05-31T11:16:29.015Z,80
2017-05-31T11:17:37.974Z,80
2017-05-31T11:18:46.934Z,80
2017-05-31T11:19:56.149Z,80
2017-05-31T11:21:05.110Z,85
2017-05-31T11:22:14.074Z,95
2017-05-31T11:23:23.048Z,90
2017-05-31T11:24:32.017Z,90
2017-05-31T11:25:41.280Z,90
2017-05-31T11:26:50.248Z,100
2017-05-31T11:27:59.219Z,85
2017-05-31T11:29:08.272Z,80
2017-05-31T11:30:17.243Z,85
2017-05-31T11:31:26.463Z,40
2017-05-31T11:32:35.425Z,60
2017-05-31T11:33:44.387Z,55
2017-05-31T11:34:53.353Z,85
2017-05-31T11:36:02.319Z,50
2017-05-31T11:37:11.581Z,85
2017-05-31T11:38:20.545Z,35
2017-05-31T11:39:29.505Z,40
2017-05-31T11:40:38.467Z,80
2017-05-31T11:41:47.431Z,85
2017-05-31T11:42:56.648Z,80
2017-05-31T11:44:05.607Z,85
2017-05-31T11:45:14.901Z,50
2017-05-31T11:46:23.864Z,45
2017-05-31T11:47:32.827Z,45
2017-05-31T11:48:42.089Z,95
2017-05-31T11:49:51.052Z,95
2017-05-31T11:51:00.013Z,60
2017-05-31T11:52:08.972Z,80
2017-05-31T11:53:17.941Z,90
2017-05-31T11:54:27.160Z,70
2017-05-31T11:55:36.127Z,90
2017-05-31T11:56:45.092Z,50
2017-05-31T11:57:54.057Z,100
2017-05-31T11:59:03.022Z,70
2017-05-31T12:00:12.238Z,40
2017-05-31T12:01:21.198Z,45
2017-05-31T12:02:30.169Z,40
2017-05-31T12:03:39.134Z,55
2017-05-31T12:04:48.100Z,90
2017-05-31T12:05:57.314Z,80
2017-05-31T12:07:06.276Z,80
2017-05-31T12:08:15.243Z,75
2017-05-31T12:09:24.543Z,70
2017-05-31T12:10:33.504Z,75
2017-05-31T12:11:42.720Z,35
2017-05-31T12:12:51.695Z,30
2017-05-31T12:14:00.655Z,30
2017-05-31T12:15:09.619Z,40
2017-05-31T12:16:18.583Z,45
2017-05-31T12:17:27.857Z,50
2017-05-31T12:18:36.820Z,80
2017-05-31T12:19:45.782Z,85
2017-05-31T12:20:54.745Z,90
2017-05-31T12:22:03.705Z,95
2017-05-31T12:23:12.970Z,95
2017-05-31T12:24:21.948Z,75
2017-05-31T12:25:30.921Z,95
2017-05-31T12:26:39.888Z,85
2017-05-31T12:27:48.859Z,75
2017-05-31T12:28:58.081Z,65
2017-05-31T12:30:07.040Z,70
2017-05-31T12:31:16.069Z,70
2017-05-31T12:32:25.044Z,50
2017-05-31T12:33:34.007Z,60
2017-05-31T12:34:43.220Z,35
2017-05-31T12:35:52.188Z,40
2017-05-31T12:37:01.155Z,35
2017-05-31T12:38:10.117Z,75
2017-05-31T12:39:19.079Z,45
2017-05-31T12:40:28.296Z,80
2017-05-31T12:41:37.263Z,75
2017-05-31T12:42:46.223Z,70
2017-05-31T12:43:55.196Z,65
2017-05-31T12:45:04.227Z,65
2017-05-31T12:46:13.435Z,65
2017-05-31T12:47:22.403Z,65
2017-05-31T12:48:31.370Z,25
2017-05-31T12:49:40.652Z,55
2017-05-31T12:50:49.619Z,55
2017-05-31T12:51:58.878Z,70
2017-05-31T12:53:07.842Z,70
2017-05-31T12:54:16.807Z,80
2017-05-31T12:55:25.774Z,80
2017-05-31T12:56:34.739Z,70
2017-05-31T12:57:43.950Z,70
2017-05-31T12:58:52.915Z,70
2017-05-31T13:00:01.879Z,75
2017-05-31T13:01:10.837Z,30
2017-05-31T13:02:19.806Z,70
2017-05-31T13:03:29.019Z,75
2017-05-31T13:04:38.075Z,75
2017-05-31T13:05:47.035Z,75
2017-05-31T13:06:55.998Z,75
2017-05-31T13:08:05.054Z,60
2017-05-31T13:09:14.266Z,30
2017-05-31T13:10:23.232Z,35
2017-05-31T13:11:32.200Z,30
2017-05-31T13:12:41.167Z,85
2017-05-31T13:13:50.127Z,85
2017-05-31T13:14:59.385Z,80
2017-05-31T13:16:08.351Z,75
2017-05-31T13:17:17.321Z,75
2017-05-31T13:18:26.616Z,75
2017-05-31T13:19:35.576Z,75
2017-05-31T13:20:44.787Z,80
2017-05-31T13:21:53.847Z,75
2017-05-31T13:23:02.810Z,75
2017-05-31T13:24:11.780Z,70
2017-05-31T13:25:20.762Z,80
2017-05-31T13:26:29.976Z,80
2017-05-31T13:27:38.943Z,75
2017-05-31T13:28:47.906Z,75
2017-05-31T13:29:56.879Z,75
2017-05-31T13:31:05.841Z,25
2017-05-31T13:32:15.048Z,35
2017-05-31T13:33:24.099Z,80
2017-05-31T13:34:33.415Z,85
2017-05-31T13:35:42.732Z,80
2017-05-31T13:36:51.815Z,75
2017-05-31T13:38:01.028Z,75
2017-05-31T13:39:10.063Z,70
2017-05-31T13:40:19.224Z,75
2017-05-31T13:41:28.340Z,75
2017-05-31T13:42:37.406Z,75
2017-05-31T13:43:46.717Z,75
2017-05-31T13:44:55.730Z,75
2017-05-31T13:46:04.947Z,75
2017-05-31T13:47:14.363Z,75
2017-05-31T13:48:23.628Z,65
2017-05-31T13:49:33.308Z,80
2017-05-31T13:50:42.401Z,55
2017-05-31T13:51:51.405Z,95
2017-05-31T13:53:00.373Z,90
2017-05-31T13:54:09.346Z,80
2017-05-31T13:55:18.558Z,75
2017-05-31T13:56:27.525Z,75
2017-05-31T13:57:36.494Z,80
2017-05-31T13:58:45.456Z,75
2017-05-31T13:59:54.507Z,75
2017-05-31T14:01:03.802Z,70
2017-05-31T14:02:12.765Z,70
2017-05-31T14:03:21.732Z,70
2017-05-31T14:04:30.741Z,70
2017-05-31T14:05:39.709Z,70
2017-05-31T14:06:50.106Z,70
2017-05-31T14:07:59.651Z,60
2017-05-31T14:09:09.703Z,65
2017-05-31T14:10:18.668Z,70
2017-05-31T14:11:27.635Z,65
2017-05-31T14:12:36.858Z,70
2017-05-31T14:13:45.849Z,70
2017-05-31T14:14:54.909Z,70
2017-05-31T14:16:04.029Z,65
2017-05-31T14:17:13.091Z,70
2017-05-31T14:18:22.389Z,70
2017-05-31T14:19:31.393Z,70
2017-05-31T14:20:40.406Z,55
2017-05-31T14:21:49.436Z,40
2017-05-31T14:22:58.700Z,70
2017-05-31T14:24:08.207Z,70
2017-05-31T14:25:17.312Z,65
2017-05-31T14:26:26.276Z,65
2017-05-31T14:27:35.252Z,65
2017-05-31T14:28:44.323Z,65
2017-05-31T14:29:53.662Z,25
2017-05-31T14:31:02.626Z,75
2017-05-31T14:32:11.616Z,70
2017-05-31T14:33:20.670Z,65
2017-05-31T14:34:29.637Z,30
2017-05-31T14:35:40.123Z,20
2017-05-31T14:36:49.086Z,20
2017-05-31T14:38:02.646Z,60
2017-05-31T14:39:12.783Z,65
2017-05-31T14:40:22.035Z,25
2017-05-31T14:41:31.307Z,65
2017-05-31T14:42:40.272Z,60
2017-05-31T14:43:49.233Z,40
2017-05-31T14:44:58.202Z,15
2017-05-31T14:46:07.167Z,40
2017-05-31T14:47:16.431Z,35
2017-05-31T14:48:25.487Z,55
2017-05-31T14:49:34.451Z,60
2017-05-31T14:50:43.426Z,60
2017-05-31T14:51:52.390Z,55
2017-05-31T14:53:01.613Z,60
2017-05-31T14:54:10.586Z,60
2017-05-31T14:55:19.551Z,60
2017-05-31T14:56:28.514Z,60
2017-05-31T14:57:37.485Z,60
2017-05-31T14:58:46.703Z,60
2017-05-31T14:59:55.671Z,60
2017-05-31T15:01:04.636Z,55
2017-05-31T15:02:13.604Z,55
2017-05-31T15:03:22.568Z,55
2017-05-31T15:04:31.794Z,55
2017-05-31T15:05:40.756Z,60
2017-05-31T15:06:49.716Z,55
2017-05-31T15:07:58.684Z,55
2017-05-31T15:09:07.742Z,55
2017-05-31T15:10:17.013Z,55
2017-05-31T15:11:25.983Z,55
2017-05-31T15:12:34.956Z,55
2017-05-31T15:13:43.921Z,55
2017-05-31T15:14:53.225Z,55
2017-05-31T15:16:02.441Z,55
2017-05-31T15:17:11.503Z,55
2017-05-31T15:18:20.551Z,55
2017-05-31T15:19:29.521Z,55
2017-05-31T15:20:38.489Z,55
2017-05-31T15:21:47.705Z,50
2017-05-31T15:22:56.671Z,50
2017-05-31T15:24:05.653Z,55
2017-05-31T15:25:14.614Z,55
2017-05-31T15:26:23.583Z,50
2017-05-31T15:27:32.798Z,45
2017-05-31T15:28:41.764Z,50
2017-05-31T15:29:50.725Z,50
2017-05-31T15:30:59.692Z,50
2017-05-31T15:32:08.659Z,50
2017-05-31T15:33:17.973Z,50
2017-05-31T15:34:26.943Z,50
2017-05-31T15:35:35.917Z,50
2017-05-31T15:36:44.880Z,30
2017-05-31T15:37:53.848Z,50
2017-05-31T15:39:03.111Z,45
2017-05-31T15:40:12.078Z,15
2017-05-31T15:41:21.042Z,50
2017-05-31T15:42:30.014Z,50
2017-05-31T15:43:38.979Z,50
2017-05-31T15:44:48.201Z,45
2017-05-31T15:45:57.166Z,45
2017-05-31T15:47:06.135Z,45
2017-05-31T15:48:15.109Z,45
2017-05-31T15:49:24.084Z,50
2017-05-31T15:50:33.350Z,50
2017-05-31T15:51:42.339Z,50
2017-05-31T15:52:51.331Z,50
2017-05-31T15:54:00.318Z,45
2017-05-31T15:55:09.306Z,45
2017-05-31T15:56:18.549Z,45
2017-05-31T15:57:27.626Z,40
2017-05-31T15:58:36.688Z,45
2017-05-31T15:59:45.674Z,45
2017-05-31T16:00:54.687Z,15
2017-05-31T16:02:03.923Z,15
2017-05-31T16:03:12.916Z,35
2017-05-31T16:04:22.235Z,15
2017-05-31T16:05:31.223Z,40
2017-05-31T16:06:40.212Z,15
2017-05-31T16:07:49.463Z,15
2017-05-31T16:08:58.450Z,40
2017-05-31T16:10:07.437Z,40
2017-05-31T16:11:16.428Z,40
2017-05-31T16:12:25.409Z,40
2017-05-31T16:13:34.644Z,40
2017-05-31T16:14:43.631Z,40
2017-05-31T16:15:52.683Z,40
2017-05-31T16:17:01.690Z,35
2017-05-31T16:18:10.681Z,35
2017-05-31T16:19:19.963Z,35
2017-05-31T16:20:28.957Z,35
2017-05-31T16:21:37.945Z,35
2017-05-31T16:22:46.934Z,30
2017-05-31T16:23:56.006Z,30
2017-05-31T16:25:05.307Z,30
2017-05-31T16:26:14.299Z,30
2017-05-31T16:27:23.286Z,30
2017-05-31T16:28:32.279Z,30
2017-05-31T16:29:41.268Z,30
2017-05-31T16:30:50.505Z,30
2017-05-31T16:31:59.491Z,35
2017-05-31T16:33:08.477Z,30